AFL1190 UACC-ULLI
Flight info
| Callsign | AFL1190 |
|---|---|
| Flight time | 3h 31m |
| Altitude | 34000 |
| Route | KODOL T523 ATBAN L994 DOKUT L998 LANOR N993 SONAT M60 APSAS L259 PRIBI P979 BEPOL BEPOL1B |
| Aircraft | B77W/H-SDE1E2E3FGHIJ2J3J4J5M1RWXY/LB1D1 |
Departure
| Time | 2026-05-01 09:49 |
|---|---|
| Airport | Nursultan Nazarbayev International Airport (UACC) |
Arrival
| Time | 2026-05-01 13:21 |
|---|---|
| Airport | Pulkovo Airport (ULLI) |
| Time | Latitude | Longitude | Altitude | Speed | Heading |
|---|---|---|---|---|---|
| 2026-05-01 09:10 | 51.02771 | 71.46468 | 1141 ft | 0 kts | 316° |
| 2026-05-01 09:39 | 51.02769 | 71.46471 | 1164 ft | 2 kts | 316° |
| 2026-05-01 09:39 | 51.02756 | 71.46492 | 1164 ft | 3 kts | 301° |
| 2026-05-01 09:40 | 51.02745 | 71.46521 | 1164 ft | 4 kts | 306° |
| 2026-05-01 09:40 | 51.02701 | 71.46549 | 1164 ft | 4 kts | 26° |
| 2026-05-01 09:40 | 51.02684 | 71.46530 | 1164 ft | 0 kts | 45° |
| 2026-05-01 09:43 | 51.02685 | 71.46531 | 1164 ft | 1 kts | 45° |
| 2026-05-01 09:43 | 51.02697 | 71.46609 | 1166 ft | 7 kts | 104° |
| 2026-05-01 09:44 | 51.02665 | 71.46784 | 1165 ft | 13 kts | 62° |
| 2026-05-01 09:44 | 51.02730 | 71.46894 | 1165 ft | 14 kts | 45° |
| 2026-05-01 09:44 | 51.02799 | 71.47003 | 1165 ft | 16 kts | 45° |
| 2026-05-01 09:45 | 51.02909 | 71.47175 | 1165 ft | 29 kts | 44° |
| 2026-05-01 09:45 | 51.03150 | 71.47553 | 1166 ft | 12 kts | 45° |
| 2026-05-01 09:45 | 51.03210 | 71.47645 | 1166 ft | 13 kts | 43° |
| 2026-05-01 09:46 | 51.03290 | 71.47767 | 1166 ft | 20 kts | 44° |
| 2026-05-01 09:46 | 51.03393 | 71.47929 | 1164 ft | 17 kts | 47° |
| 2026-05-01 09:46 | 51.03429 | 71.48102 | 1168 ft | 17 kts | 88° |
| 2026-05-01 09:46 | 51.03429 | 71.48117 | 1169 ft | 0 kts | 88° |
| 2026-05-01 09:47 | 51.03429 | 71.48122 | 1169 ft | 3 kts | 88° |
| 2026-05-01 09:47 | 51.03428 | 71.48212 | 1169 ft | 13 kts | 99° |
| 2026-05-01 09:47 | 51.03375 | 71.48315 | 1165 ft | 4 kts | 167° |
| 2026-05-01 09:47 | 51.03340 | 71.48301 | 1167 ft | 7 kts | 207° |
| 2026-05-01 09:48 | 51.03303 | 71.48254 | 1166 ft | 0 kts | 224° |
| 2026-05-01 09:48 | 51.03227 | 71.48136 | 1168 ft | 52 kts | 224° |
| 2026-05-01 09:48 | 51.02747 | 71.47385 | 1166 ft | 143 kts | 224° |
| 2026-05-01 09:49 | 51.01825 | 71.46011 | 1355 ft | 201 kts | 221° |
| 2026-05-01 09:49 | 51.00836 | 71.44430 | 2458 ft | 197 kts | 223° |
| 2026-05-01 09:49 | 50.99855 | 71.42882 | 3576 ft | 214 kts | 222° |
| 2026-05-01 09:49 | 50.98718 | 71.41116 | 3848 ft | 242 kts | 223° |
| 2026-05-01 09:50 | 50.97502 | 71.39228 | 4516 ft | 246 kts | 223° |
| 2026-05-01 09:50 | 50.96274 | 71.37316 | 5240 ft | 247 kts | 224° |
| 2026-05-01 09:50 | 50.95309 | 71.35069 | 5748 ft | 255 kts | 252° |
| 2026-05-01 09:50 | 50.95296 | 71.32231 | 6289 ft | 264 kts | 281° |
| 2026-05-01 09:51 | 50.95829 | 71.29411 | 6700 ft | 269 kts | 283° |
| 2026-05-01 09:51 | 50.96342 | 71.26531 | 7163 ft | 271 kts | 279° |
| 2026-05-01 09:51 | 50.96764 | 71.23580 | 7675 ft | 275 kts | 278° |
| 2026-05-01 09:51 | 50.97178 | 71.20605 | 8357 ft | 275 kts | 279° |
| 2026-05-01 09:52 | 50.97601 | 71.17648 | 9016 ft | 276 kts | 279° |
| 2026-05-01 09:52 | 50.98042 | 71.14670 | 9635 ft | 279 kts | 279° |
| 2026-05-01 09:52 | 50.98499 | 71.11661 | 10188 ft | 282 kts | 279° |
| 2026-05-01 09:52 | 50.98973 | 71.08544 | 10447 ft | 301 kts | 279° |
| 2026-05-01 09:53 | 50.99482 | 71.05205 | 10619 ft | 322 kts | 280° |
| 2026-05-01 09:53 | 51.00024 | 71.01674 | 10776 ft | 343 kts | 280° |
| 2026-05-01 09:53 | 51.00656 | 70.97873 | 11108 ft | 359 kts | 282° |
| 2026-05-01 09:53 | 51.01332 | 70.93996 | 11681 ft | 369 kts | 282° |
| 2026-05-01 09:54 | 51.02012 | 70.90090 | 12378 ft | 374 kts | 281° |
| 2026-05-01 09:54 | 51.02705 | 70.86083 | 13185 ft | 379 kts | 282° |
| 2026-05-01 09:54 | 51.03510 | 70.82057 | 13964 ft | 384 kts | 285° |
| 2026-05-01 09:54 | 51.04462 | 70.78057 | 14714 ft | 390 kts | 287° |
| 2026-05-01 09:55 | 51.05535 | 70.74078 | 15420 ft | 390 kts | 289° |
| 2026-05-01 09:55 | 51.06685 | 70.70148 | 15767 ft | 395 kts | 291° |
| 2026-05-01 09:55 | 51.07910 | 70.66195 | 16021 ft | 401 kts | 291° |
| 2026-05-01 09:55 | 51.09156 | 70.62193 | 16660 ft | 406 kts | 291° |
| 2026-05-01 09:56 | 51.10377 | 70.58177 | 17459 ft | 407 kts | 290° |
| 2026-05-01 09:56 | 51.11576 | 70.54088 | 18171 ft | 411 kts | 289° |
| 2026-05-01 09:56 | 51.12772 | 70.49868 | 18771 ft | 415 kts | 289° |
| 2026-05-01 09:56 | 51.13928 | 70.45687 | 19358 ft | 419 kts | 288° |
| 2026-05-01 09:57 | 51.15093 | 70.41417 | 19955 ft | 423 kts | 288° |
| 2026-05-01 09:57 | 51.16265 | 70.37091 | 20541 ft | 427 kts | 288° |
| 2026-05-01 09:57 | 51.17447 | 70.32729 | 21130 ft | 431 kts | 288° |
| 2026-05-01 09:57 | 51.18642 | 70.28322 | 21691 ft | 436 kts | 288° |
| 2026-05-01 09:58 | 51.19852 | 70.23869 | 22250 ft | 440 kts | 288° |
| 2026-05-01 09:58 | 51.21078 | 70.19354 | 22799 ft | 444 kts | 288° |
| 2026-05-01 09:58 | 51.22314 | 70.14797 | 23331 ft | 449 kts | 288° |
| 2026-05-01 09:58 | 51.23557 | 70.10209 | 23784 ft | 453 kts | 288° |
| 2026-05-01 09:59 | 51.24809 | 70.05581 | 24264 ft | 455 kts | 288° |
| 2026-05-01 09:59 | 51.26064 | 70.00929 | 24693 ft | 460 kts | 287° |
| 2026-05-01 09:59 | 51.27340 | 69.96179 | 24958 ft | 466 kts | 288° |
| 2026-05-01 09:59 | 51.28706 | 69.91535 | 25358 ft | 462 kts | 291° |
| 2026-05-01 10:00 | 51.30326 | 69.87059 | 25503 ft | 466 kts | 297° |
| 2026-05-01 10:00 | 51.32232 | 69.82826 | 25526 ft | 473 kts | 302° |
| 2026-05-01 10:00 | 51.34298 | 69.78785 | 25566 ft | 476 kts | 304° |
| 2026-05-01 10:00 | 51.36469 | 69.74638 | 25831 ft | 482 kts | 304° |
| 2026-05-01 10:01 | 51.38561 | 69.70528 | 26406 ft | 480 kts | 302° |
| 2026-05-01 10:01 | 51.40608 | 69.66321 | 26963 ft | 479 kts | 301° |
| 2026-05-01 10:01 | 51.42597 | 69.62044 | 27418 ft | 480 kts | 300° |
| 2026-05-01 10:01 | 51.44557 | 69.57676 | 27786 ft | 483 kts | 299° |
| 2026-05-01 10:02 | 51.46487 | 69.53280 | 28340 ft | 480 kts | 298° |
| 2026-05-01 10:02 | 51.48406 | 69.48896 | 28755 ft | 483 kts | 298° |
| 2026-05-01 10:02 | 51.50351 | 69.44444 | 28951 ft | 489 kts | 298° |
| 2026-05-01 10:02 | 51.52314 | 69.39959 | 29201 ft | 493 kts | 298° |
| 2026-05-01 10:03 | 51.54293 | 69.35460 | 29652 ft | 492 kts | 298° |
| 2026-05-01 10:03 | 51.56272 | 69.30980 | 30156 ft | 489 kts | 298° |
| 2026-05-01 10:03 | 51.58237 | 69.26547 | 30677 ft | 485 kts | 298° |
| 2026-05-01 10:03 | 51.60185 | 69.22149 | 31209 ft | 480 kts | 298° |
| 2026-05-01 10:04 | 51.62119 | 69.17775 | 31688 ft | 477 kts | 298° |
| 2026-05-01 10:04 | 51.64034 | 69.13429 | 32116 ft | 475 kts | 297° |
| 2026-05-01 10:04 | 51.65938 | 69.09093 | 32475 ft | 474 kts | 297° |
| 2026-05-01 10:04 | 51.67841 | 69.04747 | 32841 ft | 473 kts | 297° |
| 2026-05-01 10:05 | 51.69729 | 69.00422 | 33201 ft | 472 kts | 297° |
| 2026-05-01 10:05 | 51.71617 | 68.96092 | 33545 ft | 470 kts | 297° |
| 2026-05-01 10:05 | 51.73504 | 68.91757 | 33723 ft | 473 kts | 297° |
| 2026-05-01 10:05 | 51.75395 | 68.87404 | 33747 ft | 475 kts | 297° |
| 2026-05-01 10:06 | 51.79168 | 68.78709 | 33750 ft | 474 kts | 296° |
| 2026-05-01 10:06 | 51.82954 | 68.69964 | 33756 ft | 475 kts | 296° |
| 2026-05-01 10:07 | 51.86738 | 68.61184 | 33756 ft | 477 kts | 296° |
| 2026-05-01 10:07 | 51.90531 | 68.52353 | 33756 ft | 479 kts | 296° |
| 2026-05-01 10:08 | 51.96249 | 68.38983 | 33766 ft | 480 kts | 295° |
| 2026-05-01 10:09 | 51.99599 | 68.29956 | 33749 ft | 460 kts | 287° |
| 2026-05-01 10:09 | 52.02099 | 68.20532 | 33774 ft | 454 kts | 283° |
| 2026-05-01 10:10 | 52.04545 | 68.10887 | 33774 ft | 467 kts | 285° |
| 2026-05-01 10:10 | 52.08587 | 67.96289 | 33774 ft | 476 kts | 287° |
| 2026-05-01 10:11 | 52.11370 | 67.86489 | 33770 ft | 476 kts | 287° |
| 2026-05-01 10:11 | 52.14110 | 67.76674 | 33757 ft | 475 kts | 287° |
| 2026-05-01 10:12 | 52.16354 | 67.68538 | 33766 ft | 474 kts | 287° |
| 2026-05-01 10:13 | 52.20830 | 67.52255 | 33762 ft | 473 kts | 287° |
| 2026-05-01 10:13 | 52.23510 | 67.42457 | 33758 ft | 472 kts | 287° |
| 2026-05-01 10:14 | 52.27508 | 67.27757 | 33764 ft | 472 kts | 287° |
| 2026-05-01 10:14 | 52.30160 | 67.17951 | 33755 ft | 472 kts | 287° |
| 2026-05-01 10:15 | 52.32786 | 67.08204 | 33764 ft | 471 kts | 287° |
| 2026-05-01 10:15 | 52.35422 | 66.98377 | 33760 ft | 472 kts | 287° |
| 2026-05-01 10:16 | 52.38051 | 66.88535 | 33760 ft | 472 kts | 287° |
| 2026-05-01 10:17 | 52.41984 | 66.73733 | 33767 ft | 472 kts | 287° |
| 2026-05-01 10:17 | 52.45829 | 66.58873 | 33752 ft | 472 kts | 286° |
| 2026-05-01 10:18 | 52.49607 | 66.44013 | 33757 ft | 472 kts | 286° |
| 2026-05-01 10:19 | 52.52137 | 66.34048 | 33753 ft | 473 kts | 286° |
| 2026-05-01 10:19 | 52.54666 | 66.24062 | 33751 ft | 474 kts | 285° |
| 2026-05-01 10:20 | 52.58450 | 66.09036 | 33754 ft | 475 kts | 285° |
| 2026-05-01 10:20 | 52.60972 | 65.98963 | 33748 ft | 476 kts | 285° |
| 2026-05-01 10:21 | 52.64731 | 65.83859 | 33748 ft | 477 kts | 285° |
| 2026-05-01 10:22 | 52.68488 | 65.68659 | 33734 ft | 478 kts | 285° |
| 2026-05-01 10:23 | 52.72226 | 65.53430 | 33736 ft | 476 kts | 285° |
| 2026-05-01 10:23 | 52.75952 | 65.38226 | 33724 ft | 476 kts | 285° |
| 2026-05-01 10:24 | 52.81413 | 65.18402 | 33705 ft | 473 kts | 293° |
| 2026-05-01 10:25 | 52.85599 | 65.09873 | 33741 ft | 491 kts | 312° |
| 2026-05-01 10:25 | 52.90774 | 65.02513 | 33711 ft | 485 kts | 310° |
| 2026-05-01 10:26 | 52.95265 | 64.94411 | 33721 ft | 471 kts | 301° |
| 2026-05-01 10:27 | 53.03548 | 64.77066 | 33730 ft | 491 kts | 303° |
| 2026-05-01 10:28 | 53.05578 | 64.73122 | 33724 ft | 492 kts | 304° |
| 2026-05-01 10:28 | 53.11489 | 64.61994 | 33709 ft | 492 kts | 305° |
| 2026-05-01 10:29 | 53.18177 | 64.49353 | 33724 ft | 489 kts | 304° |
| 2026-05-01 10:30 | 53.27056 | 64.32236 | 33704 ft | 487 kts | 304° |
| 2026-05-01 10:31 | 53.35885 | 64.15092 | 33714 ft | 486 kts | 303° |
| 2026-05-01 10:32 | 53.42507 | 64.02170 | 33706 ft | 488 kts | 303° |
| 2026-05-01 10:33 | 53.51319 | 63.84871 | 33709 ft | 489 kts | 303° |
| 2026-05-01 10:34 | 53.57953 | 63.71768 | 33698 ft | 490 kts | 303° |
| 2026-05-01 10:34 | 53.62362 | 63.63021 | 33701 ft | 489 kts | 303° |
| 2026-05-01 10:35 | 53.68927 | 63.49938 | 33725 ft | 489 kts | 303° |
| 2026-05-01 10:35 | 53.73317 | 63.41147 | 33688 ft | 489 kts | 303° |
| 2026-05-01 10:36 | 53.79877 | 63.27958 | 33724 ft | 488 kts | 303° |
| 2026-05-01 10:37 | 53.84241 | 63.19142 | 33698 ft | 488 kts | 302° |
| 2026-05-01 10:37 | 53.90749 | 63.05943 | 33716 ft | 485 kts | 302° |
| 2026-05-01 10:38 | 53.95073 | 62.97131 | 33710 ft | 484 kts | 302° |
| 2026-05-01 10:38 | 53.99364 | 62.88355 | 33713 ft | 483 kts | 302° |
| 2026-05-01 10:39 | 54.03621 | 62.79614 | 33727 ft | 482 kts | 302° |
| 2026-05-01 10:39 | 54.07882 | 62.70838 | 33725 ft | 481 kts | 302° |
| 2026-05-01 10:40 | 54.12123 | 62.62015 | 33740 ft | 481 kts | 301° |
| 2026-05-01 10:40 | 54.16303 | 62.53112 | 33735 ft | 480 kts | 300° |
| 2026-05-01 10:41 | 54.20466 | 62.44179 | 33743 ft | 481 kts | 301° |
| 2026-05-01 10:42 | 54.26714 | 62.30774 | 33745 ft | 481 kts | 300° |
| 2026-05-01 10:42 | 54.30875 | 62.21827 | 33758 ft | 481 kts | 300° |
| 2026-05-01 10:43 | 54.35032 | 62.12850 | 33770 ft | 480 kts | 300° |
| 2026-05-01 10:43 | 54.39184 | 62.03845 | 33778 ft | 480 kts | 300° |
| 2026-05-01 10:44 | 54.43314 | 61.94860 | 33784 ft | 479 kts | 300° |
| 2026-05-01 10:44 | 54.47438 | 61.85849 | 33794 ft | 479 kts | 300° |
| 2026-05-01 10:45 | 54.51523 | 61.76885 | 33797 ft | 478 kts | 299° |
| 2026-05-01 10:45 | 54.55622 | 61.67854 | 33814 ft | 479 kts | 299° |
| 2026-05-01 10:46 | 54.59718 | 61.58798 | 33801 ft | 479 kts | 299° |
| 2026-05-01 10:46 | 54.63775 | 61.49812 | 33810 ft | 468 kts | 298° |
| 2026-05-01 10:47 | 54.67746 | 61.40973 | 33817 ft | 463 kts | 298° |
| 2026-05-01 10:47 | 54.71662 | 61.32210 | 33822 ft | 458 kts | 298° |
| 2026-05-01 10:48 | 54.75532 | 61.23523 | 33827 ft | 453 kts | 298° |
| 2026-05-01 10:48 | 54.79344 | 61.14948 | 33836 ft | 449 kts | 297° |
| 2026-05-01 10:49 | 54.83135 | 61.06381 | 33829 ft | 446 kts | 297° |
| 2026-05-01 10:49 | 54.86889 | 60.97857 | 33838 ft | 443 kts | 297° |
| 2026-05-01 10:50 | 54.90612 | 60.89379 | 33841 ft | 440 kts | 297° |
| 2026-05-01 10:50 | 54.94311 | 60.80945 | 33844 ft | 437 kts | 297° |
| 2026-05-01 10:51 | 54.97970 | 60.72607 | 33853 ft | 435 kts | 296° |
| 2026-05-01 10:51 | 55.01648 | 60.64193 | 33856 ft | 433 kts | 296° |
| 2026-05-01 10:52 | 55.05265 | 60.55885 | 33863 ft | 431 kts | 296° |
| 2026-05-01 10:52 | 55.08879 | 60.47553 | 33860 ft | 429 kts | 296° |
| 2026-05-01 10:53 | 55.12471 | 60.39244 | 33873 ft | 427 kts | 295° |
| 2026-05-01 10:53 | 55.16034 | 60.30971 | 33881 ft | 426 kts | 295° |
| 2026-05-01 10:54 | 55.19593 | 60.22681 | 33877 ft | 424 kts | 295° |
| 2026-05-01 10:54 | 55.23122 | 60.14437 | 33888 ft | 423 kts | 295° |
| 2026-05-01 10:55 | 55.26639 | 60.06194 | 33886 ft | 421 kts | 294° |
| 2026-05-01 10:55 | 55.30147 | 59.97947 | 33896 ft | 420 kts | 294° |
| 2026-05-01 10:56 | 55.33607 | 59.89777 | 33897 ft | 419 kts | 294° |
| 2026-05-01 10:56 | 55.37079 | 59.81558 | 33889 ft | 418 kts | 294° |
| 2026-05-01 10:57 | 55.40538 | 59.73329 | 33911 ft | 417 kts | 294° |
| 2026-05-01 10:57 | 55.43935 | 59.65147 | 33900 ft | 416 kts | 293° |
| 2026-05-01 10:58 | 55.47343 | 59.56901 | 33892 ft | 415 kts | 293° |
| 2026-05-01 10:58 | 55.50738 | 59.48665 | 33910 ft | 414 kts | 293° |
| 2026-05-01 10:59 | 55.54115 | 59.40451 | 33917 ft | 413 kts | 293° |
| 2026-05-01 10:59 | 55.57453 | 59.32300 | 33923 ft | 412 kts | 293° |
| 2026-05-01 11:00 | 55.60805 | 59.24093 | 33911 ft | 411 kts | 292° |
| 2026-05-01 11:00 | 55.64143 | 59.15894 | 33915 ft | 409 kts | 292° |
| 2026-05-01 11:01 | 55.67461 | 59.07713 | 33914 ft | 408 kts | 292° |
| 2026-05-01 11:01 | 55.70750 | 58.99578 | 33930 ft | 407 kts | 292° |
| 2026-05-01 11:02 | 55.74044 | 58.91397 | 33913 ft | 407 kts | 292° |
| 2026-05-01 11:02 | 55.77328 | 58.83223 | 33908 ft | 406 kts | 292° |
| 2026-05-01 11:03 | 55.80605 | 58.75036 | 33911 ft | 406 kts | 292° |
| 2026-05-01 11:03 | 55.83874 | 58.66844 | 33913 ft | 405 kts | 292° |
| 2026-05-01 11:04 | 55.87122 | 58.58661 | 33912 ft | 404 kts | 292° |
| 2026-05-01 11:04 | 55.90359 | 58.50501 | 33914 ft | 403 kts | 292° |
| 2026-05-01 11:05 | 55.93581 | 58.42353 | 33912 ft | 403 kts | 292° |
| 2026-05-01 11:05 | 55.96800 | 58.34188 | 33909 ft | 402 kts | 292° |
| 2026-05-01 11:06 | 56.00015 | 58.25996 | 33901 ft | 402 kts | 292° |
| 2026-05-01 11:06 | 56.03226 | 58.17793 | 33910 ft | 403 kts | 292° |
| 2026-05-01 11:07 | 56.08031 | 58.05456 | 33917 ft | 403 kts | 292° |
| 2026-05-01 11:07 | 56.11207 | 57.97276 | 33921 ft | 403 kts | 292° |
| 2026-05-01 11:08 | 56.14399 | 57.89021 | 33902 ft | 402 kts | 292° |
| 2026-05-01 11:09 | 56.19161 | 57.76638 | 33924 ft | 401 kts | 292° |
| 2026-05-01 11:09 | 56.22331 | 57.68366 | 33927 ft | 401 kts | 292° |
| 2026-05-01 11:10 | 56.27074 | 57.55929 | 33932 ft | 402 kts | 292° |
| 2026-05-01 11:10 | 56.30213 | 57.47667 | 33928 ft | 402 kts | 292° |
| 2026-05-01 11:11 | 56.33373 | 57.39320 | 33928 ft | 402 kts | 292° |
| 2026-05-01 11:11 | 56.36522 | 57.30973 | 33934 ft | 402 kts | 292° |
| 2026-05-01 11:12 | 56.39666 | 57.22608 | 33928 ft | 403 kts | 292° |
| 2026-05-01 11:12 | 56.42807 | 57.14224 | 33921 ft | 403 kts | 292° |
| 2026-05-01 11:13 | 56.45927 | 57.05869 | 33926 ft | 403 kts | 292° |
| 2026-05-01 11:13 | 56.49056 | 56.97462 | 33932 ft | 402 kts | 292° |
| 2026-05-01 11:14 | 56.52180 | 56.89038 | 33934 ft | 402 kts | 292° |
| 2026-05-01 11:14 | 56.55295 | 56.80607 | 33942 ft | 402 kts | 292° |
| 2026-05-01 11:15 | 56.58398 | 56.72176 | 33940 ft | 402 kts | 292° |
| 2026-05-01 11:15 | 56.61503 | 56.63717 | 33935 ft | 402 kts | 292° |
| 2026-05-01 11:16 | 56.64578 | 56.55306 | 33936 ft | 402 kts | 292° |
| 2026-05-01 11:16 | 56.67163 | 56.48215 | 33949 ft | 402 kts | 292° |
| 2026-05-01 11:17 | 56.70748 | 56.38346 | 33944 ft | 402 kts | 292° |
| 2026-05-01 11:17 | 56.73311 | 56.31270 | 33948 ft | 402 kts | 292° |
| 2026-05-01 11:18 | 56.76379 | 56.22768 | 33952 ft | 401 kts | 292° |
| 2026-05-01 11:18 | 56.79447 | 56.14241 | 33950 ft | 401 kts | 292° |
| 2026-05-01 11:19 | 56.82503 | 56.05717 | 33952 ft | 402 kts | 292° |
| 2026-05-01 11:19 | 56.85560 | 55.97166 | 33963 ft | 402 kts | 293° |
| 2026-05-01 11:20 | 56.88603 | 55.88606 | 33961 ft | 402 kts | 292° |
| 2026-05-01 11:20 | 56.91588 | 55.79957 | 33962 ft | 401 kts | 292° |
| 2026-05-01 11:21 | 56.94532 | 55.71302 | 33965 ft | 401 kts | 292° |
| 2026-05-01 11:21 | 56.97460 | 55.62678 | 33973 ft | 401 kts | 292° |
| 2026-05-01 11:22 | 57.00404 | 55.54001 | 33978 ft | 401 kts | 292° |
| 2026-05-01 11:22 | 57.03354 | 55.45290 | 33985 ft | 401 kts | 292° |
| 2026-05-01 11:23 | 57.06289 | 55.36587 | 33993 ft | 400 kts | 292° |
| 2026-05-01 11:23 | 57.09218 | 55.27872 | 33986 ft | 401 kts | 292° |
| 2026-05-01 11:24 | 57.12144 | 55.19134 | 33993 ft | 401 kts | 292° |
| 2026-05-01 11:25 | 57.16504 | 55.06054 | 34002 ft | 401 kts | 292° |
| 2026-05-01 11:25 | 57.20877 | 54.92861 | 33994 ft | 401 kts | 292° |
| 2026-05-01 11:26 | 57.25227 | 54.79669 | 34004 ft | 401 kts | 292° |
| 2026-05-01 11:27 | 57.28100 | 54.70913 | 34019 ft | 401 kts | 292° |
| 2026-05-01 11:27 | 57.30985 | 54.62087 | 34020 ft | 401 kts | 292° |
| 2026-05-01 11:28 | 57.33872 | 54.53223 | 34022 ft | 401 kts | 292° |
| 2026-05-01 11:28 | 57.36751 | 54.44351 | 34022 ft | 402 kts | 292° |
| 2026-05-01 11:29 | 57.41060 | 54.31009 | 34017 ft | 402 kts | 292° |
| 2026-05-01 11:30 | 57.45347 | 54.17664 | 34026 ft | 403 kts | 292° |
| 2026-05-01 11:30 | 57.48209 | 54.08711 | 34025 ft | 403 kts | 293° |
| 2026-05-01 11:31 | 57.51064 | 53.99744 | 34039 ft | 403 kts | 293° |
| 2026-05-01 11:31 | 57.53915 | 53.90756 | 34039 ft | 403 kts | 293° |
| 2026-05-01 11:32 | 57.56763 | 53.81746 | 34035 ft | 404 kts | 293° |
| 2026-05-01 11:32 | 57.59605 | 53.72721 | 34045 ft | 404 kts | 293° |
| 2026-05-01 11:33 | 57.62443 | 53.63673 | 34051 ft | 404 kts | 293° |
| 2026-05-01 11:33 | 57.65276 | 53.54596 | 34053 ft | 410 kts | 293° |
| 2026-05-01 11:34 | 57.68184 | 53.45230 | 34059 ft | 424 kts | 294° |
| 2026-05-01 11:34 | 57.71192 | 53.35519 | 34067 ft | 437 kts | 294° |
| 2026-05-01 11:35 | 57.74221 | 53.25728 | 34064 ft | 438 kts | 294° |
| 2026-05-01 11:35 | 57.77263 | 53.15852 | 34048 ft | 436 kts | 294° |
| 2026-05-01 11:36 | 57.80287 | 53.05973 | 34084 ft | 440 kts | 294° |
| 2026-05-01 11:36 | 57.83373 | 52.95822 | 34083 ft | 454 kts | 294° |
| 2026-05-01 11:37 | 57.86545 | 52.85360 | 34074 ft | 466 kts | 295° |
| 2026-05-01 11:37 | 57.89754 | 52.74764 | 34065 ft | 463 kts | 295° |
| 2026-05-01 11:38 | 57.92926 | 52.64221 | 34081 ft | 471 kts | 295° |
| 2026-05-01 11:38 | 57.96153 | 52.53438 | 34065 ft | 470 kts | 295° |
| 2026-05-01 11:39 | 57.99362 | 52.42671 | 34088 ft | 473 kts | 295° |
| 2026-05-01 11:39 | 58.02587 | 52.31794 | 34082 ft | 476 kts | 295° |
| 2026-05-01 11:40 | 58.05814 | 52.20868 | 34077 ft | 476 kts | 295° |
| 2026-05-01 11:40 | 58.09043 | 52.09950 | 34071 ft | 475 kts | 296° |
| 2026-05-01 11:41 | 58.12384 | 51.99181 | 34079 ft | 473 kts | 297° |
| 2026-05-01 11:41 | 58.15756 | 51.88488 | 34088 ft | 472 kts | 297° |
| 2026-05-01 11:42 | 58.19088 | 51.77793 | 34088 ft | 471 kts | 297° |
| 2026-05-01 11:42 | 58.22369 | 51.67129 | 34088 ft | 471 kts | 297° |
| 2026-05-01 11:43 | 58.25660 | 51.56365 | 34088 ft | 471 kts | 297° |
| 2026-05-01 11:43 | 58.28945 | 51.45583 | 34092 ft | 472 kts | 297° |
| 2026-05-01 11:44 | 58.33881 | 51.29306 | 34097 ft | 473 kts | 297° |
| 2026-05-01 11:44 | 58.37161 | 51.18426 | 34096 ft | 474 kts | 297° |
| 2026-05-01 11:45 | 58.40425 | 51.07552 | 34099 ft | 475 kts | 297° |
| 2026-05-01 11:45 | 58.43702 | 50.96584 | 34103 ft | 475 kts | 297° |
| 2026-05-01 11:46 | 58.46969 | 50.85598 | 34086 ft | 476 kts | 297° |
| 2026-05-01 11:46 | 58.50236 | 50.74559 | 34094 ft | 476 kts | 297° |
| 2026-05-01 11:47 | 58.53485 | 50.63531 | 34114 ft | 476 kts | 297° |
| 2026-05-01 11:47 | 58.56736 | 50.52451 | 34099 ft | 476 kts | 298° |
| 2026-05-01 11:48 | 58.60175 | 50.41653 | 34106 ft | 477 kts | 302° |
| 2026-05-01 11:48 | 58.64023 | 50.31247 | 34102 ft | 475 kts | 305° |
| 2026-05-01 11:49 | 58.68053 | 50.21373 | 34128 ft | 470 kts | 307° |
| 2026-05-01 11:49 | 58.72136 | 50.11337 | 34133 ft | 480 kts | 306° |
| 2026-05-01 11:50 | 58.76108 | 50.00994 | 34108 ft | 480 kts | 305° |
| 2026-05-01 11:50 | 58.79997 | 49.90566 | 34113 ft | 478 kts | 305° |
| 2026-05-01 11:51 | 58.83833 | 49.80235 | 34109 ft | 476 kts | 305° |
| 2026-05-01 11:51 | 58.87684 | 49.69870 | 34112 ft | 474 kts | 305° |
| 2026-05-01 11:52 | 58.91519 | 49.59526 | 34111 ft | 472 kts | 305° |
| 2026-05-01 11:52 | 58.95333 | 49.49185 | 34113 ft | 471 kts | 305° |
| 2026-05-01 11:53 | 58.99135 | 49.38829 | 34117 ft | 471 kts | 305° |
| 2026-05-01 11:53 | 59.02926 | 49.28458 | 34120 ft | 471 kts | 305° |
| 2026-05-01 11:54 | 59.06687 | 49.18120 | 34119 ft | 471 kts | 305° |
| 2026-05-01 11:54 | 59.10463 | 49.07697 | 34115 ft | 472 kts | 305° |
| 2026-05-01 11:55 | 59.14239 | 48.97232 | 34115 ft | 472 kts | 305° |
| 2026-05-01 11:55 | 59.17994 | 48.86744 | 34124 ft | 472 kts | 304° |
| 2026-05-01 11:56 | 59.21303 | 48.75791 | 34105 ft | 462 kts | 295° |
| 2026-05-01 11:56 | 59.22319 | 48.69851 | 34118 ft | 464 kts | 279° |
| 2026-05-01 11:56 | 59.22595 | 48.63597 | 34111 ft | 464 kts | 273° |
| 2026-05-01 11:57 | 59.22902 | 48.53168 | 34112 ft | 460 kts | 278° |
| 2026-05-01 11:57 | 59.24418 | 48.39037 | 34141 ft | 459 kts | 285° |
| 2026-05-01 11:58 | 59.26045 | 48.26766 | 34146 ft | 473 kts | 284° |
| 2026-05-01 11:59 | 59.28168 | 48.07679 | 34129 ft | 480 kts | 282° |
| 2026-05-01 11:59 | 59.29429 | 47.94855 | 34125 ft | 480 kts | 282° |
| 2026-05-01 12:00 | 59.31307 | 47.75632 | 34118 ft | 478 kts | 282° |
| 2026-05-01 12:01 | 59.33193 | 47.56499 | 34122 ft | 476 kts | 282° |
| 2026-05-01 12:01 | 59.34435 | 47.43774 | 34133 ft | 475 kts | 282° |
| 2026-05-01 12:02 | 59.35652 | 47.31143 | 34120 ft | 474 kts | 282° |
| 2026-05-01 12:02 | 59.36862 | 47.18428 | 34128 ft | 474 kts | 282° |
| 2026-05-01 12:03 | 59.38060 | 47.05694 | 34127 ft | 475 kts | 282° |
| 2026-05-01 12:03 | 59.39247 | 46.92945 | 34123 ft | 475 kts | 282° |
| 2026-05-01 12:04 | 59.40421 | 46.80182 | 34124 ft | 475 kts | 282° |
| 2026-05-01 12:04 | 59.41585 | 46.67399 | 34128 ft | 476 kts | 282° |
| 2026-05-01 12:05 | 59.42732 | 46.54644 | 34130 ft | 477 kts | 282° |
| 2026-05-01 12:05 | 59.44442 | 46.35353 | 34133 ft | 478 kts | 282° |
| 2026-05-01 12:06 | 59.45379 | 46.24635 | 34129 ft | 478 kts | 282° |
| 2026-05-01 12:06 | 59.46494 | 46.11743 | 34128 ft | 478 kts | 282° |
| 2026-05-01 12:07 | 59.47599 | 45.98815 | 34129 ft | 478 kts | 282° |
| 2026-05-01 12:07 | 59.48687 | 45.85914 | 34128 ft | 478 kts | 282° |
| 2026-05-01 12:08 | 59.49756 | 45.73092 | 34131 ft | 477 kts | 282° |
| 2026-05-01 12:08 | 59.50819 | 45.60195 | 34133 ft | 477 kts | 282° |
| 2026-05-01 12:09 | 59.51863 | 45.47300 | 34133 ft | 477 kts | 282° |
| 2026-05-01 12:09 | 59.52727 | 45.34349 | 34133 ft | 477 kts | 280° |
| 2026-05-01 12:10 | 59.53853 | 45.14867 | 34137 ft | 477 kts | 280° |
| 2026-05-01 12:11 | 59.55021 | 44.95454 | 34136 ft | 476 kts | 280° |
| 2026-05-01 12:11 | 59.55798 | 44.82484 | 34135 ft | 476 kts | 280° |
| 2026-05-01 12:12 | 59.56578 | 44.69478 | 34135 ft | 476 kts | 281° |
| 2026-05-01 12:12 | 59.57500 | 44.56585 | 34138 ft | 475 kts | 282° |
| 2026-05-01 12:13 | 59.58459 | 44.43753 | 34134 ft | 475 kts | 282° |
| 2026-05-01 12:13 | 59.59380 | 44.30804 | 34134 ft | 475 kts | 282° |
| 2026-05-01 12:14 | 59.60267 | 44.17850 | 34139 ft | 476 kts | 282° |
| 2026-05-01 12:14 | 59.61145 | 44.04876 | 34130 ft | 476 kts | 282° |
| 2026-05-01 12:15 | 59.62005 | 43.91987 | 34149 ft | 476 kts | 282° |
| 2026-05-01 12:15 | 59.62865 | 43.78915 | 34135 ft | 477 kts | 282° |
| 2026-05-01 12:16 | 59.63703 | 43.65978 | 34139 ft | 477 kts | 282° |
| 2026-05-01 12:16 | 59.64533 | 43.52960 | 34132 ft | 477 kts | 282° |
| 2026-05-01 12:17 | 59.65351 | 43.39926 | 34131 ft | 477 kts | 282° |
| 2026-05-01 12:17 | 59.66157 | 43.26863 | 34131 ft | 477 kts | 282° |
| 2026-05-01 12:18 | 59.66943 | 43.13908 | 34135 ft | 478 kts | 282° |
| 2026-05-01 12:18 | 59.67722 | 43.00857 | 34131 ft | 478 kts | 282° |
| 2026-05-01 12:19 | 59.68488 | 42.87791 | 34136 ft | 478 kts | 282° |
| 2026-05-01 12:19 | 59.69243 | 42.74723 | 34136 ft | 478 kts | 282° |
| 2026-05-01 12:20 | 59.69984 | 42.61657 | 34135 ft | 478 kts | 282° |
| 2026-05-01 12:20 | 59.70686 | 42.48567 | 34135 ft | 478 kts | 281° |
| 2026-05-01 12:21 | 59.71357 | 42.35473 | 34132 ft | 478 kts | 281° |
| 2026-05-01 12:21 | 59.72015 | 42.22446 | 34129 ft | 477 kts | 281° |
| 2026-05-01 12:22 | 59.72669 | 42.09351 | 34135 ft | 477 kts | 281° |
| 2026-05-01 12:22 | 59.73313 | 41.96254 | 34134 ft | 477 kts | 281° |
| 2026-05-01 12:23 | 59.73942 | 41.83154 | 34134 ft | 477 kts | 281° |
| 2026-05-01 12:23 | 59.74559 | 41.70052 | 34133 ft | 477 kts | 282° |
| 2026-05-01 12:24 | 59.75202 | 41.56963 | 34122 ft | 475 kts | 283° |
| 2026-05-01 12:24 | 59.76164 | 41.44212 | 34125 ft | 462 kts | 287° |
| 2026-05-01 12:25 | 59.77864 | 41.25366 | 34147 ft | 473 kts | 287° |
| 2026-05-01 12:26 | 59.78972 | 41.12399 | 34135 ft | 477 kts | 286° |
| 2026-05-01 12:26 | 59.80526 | 40.92860 | 34126 ft | 476 kts | 286° |
| 2026-05-01 12:27 | 59.82042 | 40.73381 | 34138 ft | 474 kts | 286° |
| 2026-05-01 12:28 | 59.83534 | 40.54015 | 34126 ft | 472 kts | 286° |
| 2026-05-01 12:29 | 59.84995 | 40.34676 | 34126 ft | 471 kts | 286° |
| 2026-05-01 12:29 | 59.86421 | 40.15415 | 34125 ft | 471 kts | 286° |
| 2026-05-01 12:30 | 59.87824 | 39.96038 | 34128 ft | 472 kts | 286° |
| 2026-05-01 12:31 | 59.88731 | 39.83282 | 34127 ft | 473 kts | 286° |
| 2026-05-01 12:31 | 59.89662 | 39.70115 | 34135 ft | 487 kts | 286° |
| 2026-05-01 12:32 | 59.90594 | 39.56665 | 34133 ft | 498 kts | 285° |
| 2026-05-01 12:32 | 59.91996 | 39.35869 | 34140 ft | 510 kts | 285° |
| 2026-05-01 12:33 | 59.92927 | 39.21812 | 34134 ft | 512 kts | 285° |
| 2026-05-01 12:33 | 59.93848 | 39.07691 | 34124 ft | 512 kts | 284° |
| 2026-05-01 12:34 | 59.94747 | 38.93680 | 34129 ft | 511 kts | 284° |
| 2026-05-01 12:34 | 59.95635 | 38.79618 | 34125 ft | 510 kts | 284° |
| 2026-05-01 12:35 | 59.96504 | 38.65573 | 34130 ft | 508 kts | 284° |
| 2026-05-01 12:35 | 59.97357 | 38.51581 | 34129 ft | 507 kts | 284° |
| 2026-05-01 12:36 | 59.98190 | 38.37647 | 34133 ft | 505 kts | 283° |
| 2026-05-01 12:36 | 59.99009 | 38.23714 | 34131 ft | 504 kts | 283° |
| 2026-05-01 12:37 | 59.99810 | 38.09822 | 34138 ft | 503 kts | 283° |
| 2026-05-01 12:37 | 60.00595 | 37.95932 | 34138 ft | 503 kts | 283° |
| 2026-05-01 12:38 | 60.01368 | 37.82040 | 34137 ft | 502 kts | 283° |
| 2026-05-01 12:38 | 60.02125 | 37.68142 | 34141 ft | 502 kts | 283° |
| 2026-05-01 12:39 | 60.02863 | 37.54345 | 34135 ft | 502 kts | 282° |
| 2026-05-01 12:39 | 60.03593 | 37.40432 | 34136 ft | 501 kts | 282° |
| 2026-05-01 12:40 | 60.04305 | 37.26573 | 34136 ft | 501 kts | 282° |
| 2026-05-01 12:40 | 60.05001 | 37.12715 | 34133 ft | 500 kts | 282° |
| 2026-05-01 12:41 | 60.05683 | 36.98921 | 34134 ft | 500 kts | 282° |
| 2026-05-01 12:41 | 60.06353 | 36.84997 | 34134 ft | 499 kts | 282° |
| 2026-05-01 12:42 | 60.06997 | 36.71217 | 34133 ft | 499 kts | 282° |
| 2026-05-01 12:42 | 60.07631 | 36.57379 | 34130 ft | 499 kts | 282° |
| 2026-05-01 12:43 | 60.08253 | 36.43523 | 34142 ft | 498 kts | 282° |
| 2026-05-01 12:43 | 60.08853 | 36.29803 | 34131 ft | 493 kts | 282° |
| 2026-05-01 12:44 | 60.09139 | 36.23032 | 34023 ft | 482 kts | 282° |
| 2026-05-01 12:44 | 60.09418 | 36.16402 | 33932 ft | 472 kts | 282° |
| 2026-05-01 12:44 | 60.09956 | 36.03548 | 33781 ft | 454 kts | 282° |
| 2026-05-01 12:45 | 60.10458 | 35.91167 | 33587 ft | 439 kts | 282° |
| 2026-05-01 12:45 | 60.10699 | 35.85093 | 33358 ft | 436 kts | 283° |
| 2026-05-01 12:45 | 60.10940 | 35.79005 | 32991 ft | 435 kts | 283° |
| 2026-05-01 12:46 | 60.11179 | 35.72952 | 32536 ft | 437 kts | 283° |
| 2026-05-01 12:46 | 60.11415 | 35.66935 | 32068 ft | 439 kts | 283° |
| 2026-05-01 12:46 | 60.11649 | 35.60834 | 31622 ft | 440 kts | 283° |
| 2026-05-01 12:46 | 60.11880 | 35.54711 | 31193 ft | 441 kts | 283° |
| 2026-05-01 12:47 | 60.12109 | 35.48552 | 30757 ft | 442 kts | 283° |
| 2026-05-01 12:47 | 60.12336 | 35.42402 | 30311 ft | 443 kts | 283° |
| 2026-05-01 12:47 | 60.12560 | 35.36231 | 30158 ft | 445 kts | 283° |
| 2026-05-01 12:47 | 60.12785 | 35.30020 | 30139 ft | 446 kts | 283° |
| 2026-05-01 12:48 | 60.13221 | 35.17615 | 30127 ft | 444 kts | 283° |
| 2026-05-01 12:48 | 60.13639 | 35.05344 | 30134 ft | 443 kts | 283° |
| 2026-05-01 12:49 | 60.14051 | 34.92984 | 30133 ft | 443 kts | 283° |
| 2026-05-01 12:49 | 60.14450 | 34.80661 | 30128 ft | 443 kts | 282° |
| 2026-05-01 12:50 | 60.14838 | 34.68325 | 30124 ft | 442 kts | 282° |
| 2026-05-01 12:50 | 60.15213 | 34.55993 | 30126 ft | 442 kts | 282° |
| 2026-05-01 12:51 | 60.15576 | 34.43728 | 30128 ft | 442 kts | 282° |
| 2026-05-01 12:52 | 60.16103 | 34.25206 | 30133 ft | 443 kts | 282° |
| 2026-05-01 12:52 | 60.16593 | 34.06806 | 30045 ft | 431 kts | 281° |
| 2026-05-01 12:53 | 60.16851 | 33.96784 | 29005 ft | 429 kts | 281° |
| 2026-05-01 12:53 | 60.17002 | 33.90826 | 28468 ft | 426 kts | 281° |
| 2026-05-01 12:53 | 60.17148 | 33.84905 | 27989 ft | 422 kts | 281° |
| 2026-05-01 12:54 | 60.17291 | 33.79065 | 27520 ft | 418 kts | 281° |
| 2026-05-01 12:54 | 60.17606 | 33.65714 | 26598 ft | 405 kts | 281° |
| 2026-05-01 12:54 | 60.17736 | 33.60055 | 26153 ft | 402 kts | 281° |
| 2026-05-01 12:55 | 60.17949 | 33.50693 | 25379 ft | 398 kts | 280° |
| 2026-05-01 12:55 | 60.18072 | 33.45138 | 24908 ft | 396 kts | 280° |
| 2026-05-01 12:55 | 60.18191 | 33.39612 | 24435 ft | 392 kts | 280° |
| 2026-05-01 12:56 | 60.18297 | 33.34283 | 23969 ft | 372 kts | 280° |
| 2026-05-01 12:56 | 60.18393 | 33.29278 | 23511 ft | 355 kts | 281° |
| 2026-05-01 12:56 | 60.18493 | 33.24306 | 23071 ft | 350 kts | 281° |
| 2026-05-01 12:56 | 60.18574 | 33.19465 | 22663 ft | 354 kts | 278° |
| 2026-05-01 12:57 | 60.18508 | 33.14509 | 22237 ft | 358 kts | 274° |
| 2026-05-01 12:57 | 60.17421 | 33.04296 | 21438 ft | 389 kts | 259° |
| 2026-05-01 12:57 | 60.16539 | 32.99087 | 20990 ft | 395 kts | 258° |
| 2026-05-01 12:58 | 60.15645 | 32.93877 | 20537 ft | 394 kts | 258° |
| 2026-05-01 12:58 | 60.14792 | 32.88675 | 20110 ft | 391 kts | 259° |
| 2026-05-01 12:58 | 60.13989 | 32.83501 | 19794 ft | 385 kts | 260° |
| 2026-05-01 12:59 | 60.12483 | 32.73205 | 18855 ft | 383 kts | 261° |
| 2026-05-01 12:59 | 60.11750 | 32.68070 | 18379 ft | 383 kts | 261° |
| 2026-05-01 12:59 | 60.10293 | 32.57924 | 17708 ft | 375 kts | 260° |
| 2026-05-01 13:00 | 60.08853 | 32.48102 | 17406 ft | 361 kts | 260° |
| 2026-05-01 13:00 | 60.08145 | 32.43292 | 17148 ft | 357 kts | 260° |
| 2026-05-01 13:01 | 60.06745 | 32.33771 | 16487 ft | 355 kts | 259° |
| 2026-05-01 13:01 | 60.06049 | 32.29067 | 16186 ft | 354 kts | 259° |
| 2026-05-01 13:01 | 60.04521 | 32.19700 | 15509 ft | 351 kts | 257° |
| 2026-05-01 13:02 | 60.03736 | 32.15198 | 15190 ft | 350 kts | 256° |
| 2026-05-01 13:07 | 59.89149 | 31.31960 | 9045 ft | 231 kts | 255° |
| 2026-05-01 13:07 | 59.88615 | 31.28947 | 8686 ft | 230 kts | 255° |
| 2026-05-01 13:07 | 59.88082 | 31.25949 | 8373 ft | 229 kts | 255° |
| 2026-05-01 13:08 | 59.87549 | 31.22975 | 8084 ft | 225 kts | 255° |
| 2026-05-01 13:08 | 59.87026 | 31.20074 | 8044 ft | 225 kts | 255° |
| 2026-05-01 13:08 | 59.86462 | 31.16896 | 8097 ft | 259 kts | 254° |
| 2026-05-01 13:08 | 59.85936 | 31.13403 | 8018 ft | 266 kts | 259° |
| 2026-05-01 13:09 | 59.85414 | 31.09883 | 8005 ft | 267 kts | 249° |
| 2026-05-01 13:09 | 59.84284 | 31.06885 | 8020 ft | 275 kts | 224° |
| 2026-05-01 13:09 | 59.82626 | 31.04974 | 8004 ft | 282 kts | 193° |
| 2026-05-01 13:09 | 59.80665 | 31.05126 | 8022 ft | 288 kts | 159° |
| 2026-05-01 13:10 | 59.79057 | 31.07317 | 8015 ft | 286 kts | 125° |
| 2026-05-01 13:10 | 59.78296 | 31.10824 | 8013 ft | 274 kts | 91° |
| 2026-05-01 13:10 | 59.78632 | 31.14397 | 8009 ft | 261 kts | 56° |
| 2026-05-01 13:10 | 59.79895 | 31.16799 | 8014 ft | 253 kts | 21° |
| 2026-05-01 13:11 | 59.81597 | 31.17219 | 8010 ft | 250 kts | 346° |
| 2026-05-01 13:11 | 59.83090 | 31.15563 | 7853 ft | 251 kts | 312° |
| 2026-05-01 13:11 | 59.83876 | 31.12382 | 7279 ft | 269 kts | 279° |
| 2026-05-01 13:11 | 59.83600 | 31.08653 | 6784 ft | 284 kts | 245° |
| 2026-05-01 13:12 | 59.82310 | 31.05726 | 6565 ft | 279 kts | 220° |
| 2026-05-01 13:12 | 59.80831 | 31.03296 | 5977 ft | 277 kts | 230° |
| 2026-05-01 13:12 | 59.79940 | 30.99970 | 5521 ft | 273 kts | 260° |
| 2026-05-01 13:12 | 59.79767 | 30.97219 | 5383 ft | 260 kts | 268° |
| 2026-05-01 13:13 | 59.79701 | 30.94543 | 5138 ft | 254 kts | 269° |
| 2026-05-01 13:13 | 59.79819 | 30.91104 | 5089 ft | 253 kts | 280° |
| 2026-05-01 13:13 | 59.80168 | 30.87675 | 5033 ft | 253 kts | 282° |
| 2026-05-01 13:13 | 59.80442 | 30.84263 | 5002 ft | 246 kts | 276° |
| 2026-05-01 13:14 | 59.80457 | 30.80899 | 4774 ft | 241 kts | 264° |
| 2026-05-01 13:14 | 59.80097 | 30.77662 | 4425 ft | 240 kts | 253° |
| 2026-05-01 13:14 | 59.79532 | 30.74601 | 4184 ft | 229 kts | 248° |
| 2026-05-01 13:14 | 59.78903 | 30.71810 | 4019 ft | 214 kts | 245° |
| 2026-05-01 13:15 | 59.78253 | 30.69237 | 3846 ft | 203 kts | 244° |
| 2026-05-01 13:15 | 59.77627 | 30.66889 | 3782 ft | 183 kts | 243° |
| 2026-05-01 13:15 | 59.77050 | 30.64772 | 3631 ft | 165 kts | 243° |
| 2026-05-01 13:15 | 59.76524 | 30.62859 | 3323 ft | 153 kts | 242° |
| 2026-05-01 13:16 | 59.76023 | 30.61056 | 2853 ft | 149 kts | 242° |
| 2026-05-01 13:16 | 59.75528 | 30.59278 | 2560 ft | 149 kts | 242° |
| 2026-05-01 13:16 | 59.75072 | 30.57416 | 2525 ft | 146 kts | 252° |
| 2026-05-01 13:17 | 59.75649 | 30.51242 | 2479 ft | 155 kts | 284° |
| 2026-05-01 13:17 | 59.75927 | 30.49159 | 2264 ft | 161 kts | 285° |
| 2026-05-01 13:18 | 59.76814 | 30.43141 | 1656 ft | 149 kts | 287° |
| 2026-05-01 13:18 | 59.77102 | 30.41210 | 1458 ft | 142 kts | 286° |
| 2026-05-01 13:18 | 59.77383 | 30.39336 | 1273 ft | 147 kts | 286° |
| 2026-05-01 13:19 | 59.77675 | 30.37389 | 1032 ft | 148 kts | 286° |
| 2026-05-01 13:19 | 59.77980 | 30.35413 | 819 ft | 145 kts | 284° |
| 2026-05-01 13:19 | 59.78550 | 30.31588 | 450 ft | 147 kts | 285° |
| 2026-05-01 13:20 | 59.78840 | 30.29668 | 288 ft | 145 kts | 283° |
| 2026-05-01 13:20 | 59.79115 | 30.27767 | 102 ft | 138 kts | 284° |
| 2026-05-01 13:20 | 59.79312 | 30.26412 | 90 ft | 64 kts | 288° |
| 2026-05-01 13:21 | 59.79460 | 30.25420 | 93 ft | 31 kts | 287° |
| 2026-05-01 13:21 | 59.79522 | 30.24952 | 92 ft | 39 kts | 284° |
| 2026-05-01 13:21 | 59.79607 | 30.24405 | 92 ft | 44 kts | 289° |
| 2026-05-01 13:21 | 59.79704 | 30.23785 | 88 ft | 50 kts | 286° |
| 2026-05-01 13:22 | 59.79830 | 30.23202 | 93 ft | 19 kts | 313° |
| 2026-05-01 13:22 | 59.79922 | 30.23041 | 90 ft | 0 kts | 334° |
| 2026-05-01 13:23 | 59.79950 | 30.23045 | 93 ft | 10 kts | 23° |
| 2026-05-01 13:24 | 59.79964 | 30.23219 | 90 ft | 19 kts | 101° |
| 2026-05-01 13:24 | 59.79919 | 30.23538 | 89 ft | 30 kts | 105° |
| 2026-05-01 13:24 | 59.79860 | 30.23936 | 91 ft | 30 kts | 107° |
| 2026-05-01 13:25 | 59.79740 | 30.24725 | 93 ft | 30 kts | 105° |
| 2026-05-01 13:25 | 59.79684 | 30.25124 | 93 ft | 30 kts | 107° |
| 2026-05-01 13:25 | 59.79625 | 30.25518 | 93 ft | 30 kts | 106° |
| 2026-05-01 13:25 | 59.79566 | 30.25918 | 92 ft | 30 kts | 108° |
| 2026-05-01 13:26 | 59.79526 | 30.26200 | 92 ft | 19 kts | 94° |
| 2026-05-01 13:26 | 59.79533 | 30.26260 | 91 ft | 0 kts | 60° |
| 2026-05-01 13:26 | 59.79561 | 30.26304 | 90 ft | 8 kts | 32° |
| 2026-05-01 13:26 | 59.79612 | 30.26348 | 90 ft | 8 kts | 19° |
| 2026-05-01 13:27 | 59.79670 | 30.26385 | 90 ft | 9 kts | 16° |
| 2026-05-01 13:27 | 59.79734 | 30.26422 | 91 ft | 10 kts | 17° |
| 2026-05-01 13:27 | 59.79806 | 30.26611 | 90 ft | 5 kts | 95° |
| 2026-05-01 13:28 | 59.79802 | 30.26654 | 89 ft | 1 kts | 103° |
| 2026-05-01 13:28 | 59.79800 | 30.26668 | 89 ft | 0 kts | 103° |